Dermott, Texas
Current Conditions -  °F | °C
As of 12:55 PM on Friday 24 Oct 2014 (Local Time) from KSNK Reporting Station
Clear Clear  
Wind Chill: 71°   Ceiling: Unl
Heat Index: 71°   Visibility: 10mi
Dew Point: 63°   Wind: 9mph
Humidity: 77%   Direction: 210°SSW
Pressure: 30.19"   Gusts: NA
Location:  33.0123°N, 100.833°W
Report Text: KSNK 241755Z AUTO 21008KT 10SM CLR 22/17 A3019 RMK AO2 T02160174
Loading
Personal Weather Stations






























Interactive Weather Map
Tropical Storm Tracking
New forecast layout! Learn more

10-Day Weather Forecast

Advertisements
Track Severe Weather on mobile